createdAt,value
2019-03-31T00:01:48.799Z,100494.11
2019-03-31T00:06:51.056Z,100491.58
2019-03-31T00:11:53.291Z,100489.77
2019-03-31T00:16:55.540Z,100480.52
2019-03-31T00:21:57.804Z,100490.38
2019-03-31T00:26:59.970Z,100491.05
2019-03-31T00:32:02.410Z,100487.57
2019-03-31T00:37:07.542Z,100491.33
2019-03-31T00:42:08.852Z,100493.45
2019-03-31T00:47:11.107Z,100485.53
2019-03-31T00:52:13.217Z,100500.48
2019-03-31T00:57:15.603Z,100489.86
2019-03-31T01:02:21.877Z,100494.43
2019-03-31T01:07:25.352Z,100492.25
2019-03-31T01:12:27.806Z,100490.08
2019-03-31T01:17:30.208Z,100496.33
2019-03-31T01:22:32.500Z,100490.36
2019-03-31T01:27:35.201Z,100497.58
2019-03-31T01:32:37.558Z,100495.42
2019-03-31T01:37:39.685Z,100496.20
2019-03-31T01:42:41.983Z,100499.77
2019-03-31T01:47:44.248Z,100501.22
2019-03-31T01:52:46.482Z,100501.39
2019-03-31T01:57:48.619Z,100494.64
2019-03-31T02:02:50.833Z,100498.25
2019-03-31T02:07:53.212Z,100501.52
2019-03-31T02:12:55.614Z,100505.22
2019-03-31T02:17:57.885Z,100500.72
2019-03-31T02:23:00.164Z,100499.83
2019-03-31T02:28:02.388Z,100493.84
2019-03-31T02:33:04.686Z,100502.33
2019-03-31T02:38:06.955Z,100505.47
2019-03-31T02:43:09.195Z,100504.74
2019-03-31T02:48:14.258Z,100504.05
2019-03-31T02:53:16.829Z,100500.22
2019-03-31T02:58:19.518Z,100499.33
2019-03-31T03:03:21.947Z,100508.94
2019-03-31T03:08:25.805Z,100510.59
2019-03-31T03:13:29.238Z,100515.22
2019-03-31T03:18:31.489Z,100527.09
2019-03-31T03:23:33.780Z,100521.59
2019-03-31T03:28:36.045Z,100519.75
2019-03-31T03:33:38.297Z,100525.58
2019-03-31T03:38:40.696Z,100525.67
2019-03-31T03:43:54.924Z,100534.00
2019-03-31T03:48:47.290Z,100530.50
2019-03-31T03:53:49.528Z,100534.78
2019-03-31T03:58:51.754Z,100534.91
2019-03-31T04:03:54.095Z,100539.81
2019-03-31T04:08:56.343Z,100544.38
2019-03-31T04:13:58.702Z,100546.31
2019-03-31T04:19:00.849Z,100552.76
2019-03-31T04:24:03.333Z,100547.25
2019-03-31T04:29:05.518Z,100550.44
2019-03-31T04:34:07.702Z,100554.47
2019-03-31T04:39:09.949Z,100565.25
2019-03-31T04:44:12.190Z,100565.30
2019-03-31T04:49:14.439Z,100567.47
2019-03-31T04:54:16.706Z,100580.26
2019-03-31T04:59:18.909Z,100574.48
2019-03-31T05:04:21.034Z,100575.30
2019-03-31T05:09:23.146Z,100583.93
2019-03-31T05:14:25.257Z,100594.77
2019-03-31T05:19:27.357Z,100599.52
2019-03-31T05:24:29.481Z,100605.53
2019-03-31T05:29:31.595Z,100610.43
2019-03-31T05:34:33.724Z,100619.42
2019-03-31T05:39:35.918Z,100629.77
2019-03-31T05:44:38.180Z,100630.73
2019-03-31T05:49:40.268Z,100635.83
2019-03-31T05:54:42.359Z,100639.64
2019-03-31T05:59:44.446Z,100644.81
2019-03-31T06:04:46.566Z,100642.97
2019-03-31T06:09:48.690Z,100649.65
2019-03-31T06:14:50.743Z,100664.93
2019-03-31T06:19:52.970Z,100662.53
2019-03-31T06:24:55.063Z,100665.54
2019-03-31T06:29:57.147Z,100659.38
2019-03-31T06:34:59.236Z,100668.66
2019-03-31T06:40:01.379Z,100671.17
2019-03-31T06:45:04.028Z,100674.62
2019-03-31T06:50:06.484Z,100684.41
2019-03-31T06:55:08.678Z,100694.40
2019-03-31T07:00:13.386Z,100698.84
2019-03-31T07:05:15.533Z,100710.91
2019-03-31T07:10:17.808Z,100707.03
2019-03-31T07:15:20.109Z,100711.53
2019-03-31T07:20:22.323Z,100716.35
2019-03-31T07:25:24.523Z,100728.72
2019-03-31T07:30:26.946Z,100744.63
2019-03-31T07:35:29.151Z,100744.30
2019-03-31T07:40:31.446Z,100752.66
2019-03-31T07:45:33.637Z,100744.81
2019-03-31T07:50:35.744Z,100749.73
2019-03-31T07:55:37.970Z,100761.52
2019-03-31T08:00:40.187Z,100763.41
2019-03-31T08:05:42.308Z,100770.95
2019-03-31T08:10:44.605Z,100780.73
2019-03-31T08:15:46.878Z,100789.23
2019-03-31T08:20:49.065Z,100805.38
2019-03-31T08:25:51.413Z,100802.63
2019-03-31T08:30:53.586Z,100809.77
2019-03-31T08:35:55.818Z,100811.54
2019-03-31T08:40:58.030Z,100815.70
2019-03-31T08:46:00.330Z,100823.54
2019-03-31T08:51:02.478Z,100836.08
2019-03-31T08:56:08.486Z,100846.22
2019-03-31T09:01:14.192Z,100854.71
2019-03-31T09:06:16.529Z,100858.56
2019-03-31T09:11:18.819Z,100861.33
2019-03-31T09:16:21.042Z,100860.30
2019-03-31T09:21:23.426Z,100864.40
2019-03-31T09:26:25.731Z,100862.58
2019-03-31T09:31:28.059Z,100873.92
2019-03-31T09:36:30.269Z,100874.25
2019-03-31T09:41:32.538Z,100881.32
2019-03-31T09:46:34.695Z,100885.75
2019-03-31T09:51:37.034Z,100872.63
2019-03-31T09:56:39.262Z,100871.19
2019-03-31T10:01:41.569Z,100870.55
2019-03-31T10:06:43.799Z,100879.38
2019-03-31T10:11:46.008Z,100882.75
2019-03-31T10:16:48.284Z,100882.98
2019-03-31T10:21:50.536Z,100878.64
2019-03-31T10:26:52.953Z,100863.98
2019-03-31T10:31:55.167Z,100874.45
2019-03-31T10:36:57.427Z,100876.05
2019-03-31T10:41:59.594Z,100876.11
2019-03-31T10:47:01.921Z,100878.30
2019-03-31T10:52:04.211Z,100881.56
2019-03-31T10:57:06.438Z,100878.75
2019-03-31T11:02:08.688Z,100884.09
2019-03-31T11:07:10.824Z,100882.91
2019-03-31T11:12:12.981Z,100887.45
2019-03-31T11:17:15.147Z,100896.23
2019-03-31T11:22:27.468Z,100914.78
2019-03-31T11:27:29.822Z,100911.42
2019-03-31T11:32:32.077Z,100914.09
2019-03-31T11:37:34.315Z,100917.98
2019-03-31T11:42:36.469Z,100918.05
2019-03-31T11:47:38.733Z,100930.62
2019-03-31T11:52:41.031Z,100934.41
2019-03-31T11:57:43.362Z,100940.30
2019-03-31T12:02:45.456Z,100941.03
2019-03-31T12:07:47.721Z,100943.81
2019-03-31T12:12:49.963Z,100941.53
2019-03-31T12:17:52.124Z,100939.95
2019-03-31T12:22:54.544Z,100934.88
2019-03-31T12:27:56.654Z,100938.55
2019-03-31T12:32:58.954Z,100931.90
2019-03-31T12:38:01.456Z,100922.33
2019-03-31T12:43:03.961Z,100913.09
2019-03-31T12:48:06.167Z,100913.91
2019-03-31T12:53:08.328Z,100916.77
2019-03-31T12:58:10.440Z,100911.42
2019-03-31T13:03:15.898Z,100909.23
2019-03-31T13:08:16.832Z,100908.98
2019-03-31T13:13:19.148Z,100904.11
2019-03-31T13:18:21.395Z,100906.20
2019-03-31T13:23:23.520Z,100901.89
2019-03-31T13:28:25.643Z,100898.81
2019-03-31T13:33:27.879Z,100896.50
2019-03-31T13:38:30.038Z,100889.82
2019-03-31T13:43:32.153Z,100887.11
2019-03-31T13:48:34.305Z,100883.17
2019-03-31T13:53:36.448Z,100883.45
2019-03-31T13:58:39.171Z,100876.97
2019-03-31T14:03:41.373Z,100883.50
2019-03-31T14:08:43.596Z,100880.50
2019-03-31T14:13:45.827Z,100889.72
2019-03-31T14:18:47.989Z,100883.44
2019-03-31T14:23:50.152Z,100887.98
2019-03-31T14:28:52.386Z,100883.00
2019-03-31T14:33:54.805Z,100886.61
2019-03-31T14:38:57.291Z,100887.75
2019-03-31T14:43:59.481Z,100887.75
2019-03-31T14:49:01.632Z,100875.55
2019-03-31T14:54:03.914Z,100884.30
2019-03-31T14:59:06.180Z,100880.45
2019-03-31T15:04:08.326Z,100873.98
2019-03-31T15:09:10.444Z,100885.97
2019-03-31T15:14:12.622Z,100888.55
2019-03-31T15:19:14.786Z,100891.25
2019-03-31T15:24:17.047Z,100887.53
2019-03-31T15:29:19.150Z,100894.11
2019-03-31T15:34:21.371Z,100891.59
2019-03-31T15:39:23.624Z,100902.12
2019-03-31T15:44:25.796Z,100898.78
2019-03-31T15:49:27.927Z,100898.70
2019-03-31T15:54:30.186Z,100898.20
2019-03-31T15:59:32.427Z,100898.52
2019-03-31T16:04:34.526Z,100902.13
2019-03-31T16:09:36.140Z,100904.09
2019-03-31T16:14:37.863Z,100914.59
2019-03-31T16:19:41.479Z,100912.09
2019-03-31T16:24:46.316Z,100906.59
2019-03-31T16:29:47.983Z,100907.25
2019-03-31T16:34:49.725Z,100906.62
2019-03-31T16:39:51.377Z,100910.45
2019-03-31T16:44:58.471Z,100905.20
2019-03-31T16:49:56.729Z,100909.95
2019-03-31T16:54:58.339Z,100905.27
2019-03-31T16:59:59.891Z,100915.77
2019-03-31T17:05:01.497Z,100906.75
2019-03-31T17:10:04.584Z,100910.64
2019-03-31T17:15:06.603Z,100914.78
2019-03-31T17:20:08.333Z,100912.19
2019-03-31T17:25:14.529Z,100913.81
2019-03-31T17:30:16.415Z,100919.14
2019-03-31T17:35:18.097Z,100922.92
2019-03-31T17:40:19.824Z,100928.12
2019-03-31T17:45:21.491Z,100928.39
2019-03-31T17:50:23.099Z,100936.59
2019-03-31T17:55:24.751Z,100930.73
2019-03-31T18:00:26.356Z,100949.34
2019-03-31T18:05:27.942Z,100949.70
2019-03-31T18:10:29.648Z,100949.50
2019-03-31T18:15:31.211Z,100957.86
2019-03-31T18:20:32.813Z,100963.06
2019-03-31T18:25:34.360Z,100969.00
2019-03-31T18:30:35.994Z,100972.66
2019-03-31T18:35:37.540Z,100977.28
2019-03-31T18:40:39.163Z,100978.77
2019-03-31T18:45:40.770Z,100992.58
2019-03-31T18:50:42.482Z,100990.98
2019-03-31T18:55:59.489Z,101003.61
2019-03-31T19:01:15.613Z,101005.80
2019-03-31T19:06:41.400Z,101005.84
2019-03-31T19:12:08.224Z,101012.52
2019-03-31T19:17:32.105Z,101010.65
2019-03-31T19:22:54.950Z,101003.33
2019-03-31T19:28:08.277Z,101009.04
2019-03-31T19:33:37.074Z,101017.67
2019-03-31T19:39:01.409Z,101018.22
2019-03-31T19:44:25.963Z,101030.66
2019-03-31T19:49:53.201Z,101033.81
2019-03-31T19:55:20.513Z,101040.66
2019-03-31T20:00:40.533Z,101037.82
2019-03-31T20:05:49.786Z,101043.31
2019-03-31T20:11:14.247Z,101048.98
2019-03-31T20:16:38.367Z,101049.48
2019-03-31T20:21:45.294Z,101054.16
2019-03-31T20:27:06.517Z,101061.45
2019-03-31T20:32:51.506Z,101060.71
2019-03-31T20:38:04.075Z,101058.39
2019-03-31T20:43:28.071Z,101061.61
2019-03-31T20:48:29.649Z,101059.56
2019-03-31T20:53:31.219Z,101061.27
2019-03-31T20:58:32.789Z,101064.86
2019-03-31T21:03:34.366Z,101068.30
2019-03-31T21:08:35.952Z,101076.41
2019-03-31T21:13:37.510Z,101080.85
2019-03-31T21:18:39.082Z,101080.12
2019-03-31T21:23:40.664Z,101086.09
2019-03-31T21:28:42.233Z,101080.02
2019-03-31T21:33:43.791Z,101084.09
2019-03-31T21:38:45.359Z,101090.52
2019-03-31T21:43:46.953Z,101089.44
2019-03-31T21:48:48.511Z,101100.32
2019-03-31T21:53:50.074Z,101100.21
2019-03-31T21:58:51.635Z,101102.84
2019-03-31T22:03:53.344Z,101102.13
2019-03-31T22:08:55.160Z,101100.93
2019-03-31T22:13:57.368Z,101109.61
2019-03-31T22:18:59.312Z,101117.47
2019-03-31T22:24:01.240Z,101106.27
2019-03-31T22:29:03.000Z,101112.95
2019-03-31T22:34:04.806Z,101115.80
2019-03-31T22:39:06.723Z,101125.56
2019-03-31T22:44:08.492Z,101115.21
2019-03-31T22:49:10.217Z,101120.31
2019-03-31T22:54:11.957Z,101117.53
2019-03-31T22:59:13.833Z,101122.08
2019-03-31T23:04:15.586Z,101123.43
2019-03-31T23:09:17.409Z,101123.52
2019-03-31T23:14:19.215Z,101130.26
2019-03-31T23:19:20.956Z,101132.16
2019-03-31T23:24:22.795Z,101131.43
2019-03-31T23:29:24.573Z,101126.67
2019-03-31T23:34:26.323Z,101127.72
2019-03-31T23:39:28.093Z,101129.62
2019-03-31T23:44:29.841Z,101126.39
2019-03-31T23:49:31.593Z,101126.26
2019-03-31T23:54:33.309Z,101119.25
2019-03-31T23:59:35.061Z,101128.98
